createdAt,value
2022-09-13T00:01:04.561Z,59.67
2022-09-13T00:03:33.504Z,59.85
2022-09-13T00:06:09.601Z,59.70
2022-09-13T00:08:38.069Z,60.09
2022-09-13T00:11:07.084Z,60.15
2022-09-13T00:13:36.777Z,60.18
2022-09-13T00:16:05.428Z,60.35
2022-09-13T00:18:34.696Z,60.51
2022-09-13T00:21:08.621Z,60.52
2022-09-13T00:23:37.410Z,60.80
2022-09-13T00:26:07.341Z,60.82
2022-09-13T00:28:37.561Z,60.89
2022-09-13T00:31:08.945Z,60.92
2022-09-13T00:33:37.208Z,61.02
2022-09-13T00:36:07.037Z,61.03
2022-09-13T00:38:37.141Z,61.09
2022-09-13T00:41:06.345Z,61.24
2022-09-13T00:43:49.526Z,60.98
2022-09-13T00:46:27.536Z,61.25
2022-09-13T00:49:00.068Z,61.33
2022-09-13T00:51:29.261Z,61.36
2022-09-13T00:53:59.960Z,61.40
2022-09-13T00:56:34.434Z,61.24
2022-09-13T00:59:10.074Z,60.99
2022-09-13T01:01:45.046Z,61.12
2022-09-13T01:04:13.692Z,61.35
2022-09-13T01:06:43.730Z,61.40
2022-09-13T01:09:13.761Z,61.34
2022-09-13T01:11:50.485Z,61.12
2022-09-13T01:14:21.662Z,61.20
2022-09-13T01:16:50.118Z,61.28
2022-09-13T01:19:18.742Z,61.29
2022-09-13T01:22:32.593Z,60.99
2022-09-13T01:25:28.338Z,61.05
2022-09-13T01:28:23.225Z,61.00
2022-09-13T01:31:00.367Z,61.03
2022-09-13T01:33:46.917Z,60.94
2022-09-13T01:36:49.973Z,60.94
2022-09-13T01:39:30.670Z,61.07
2022-09-13T01:42:12.501Z,61.05
2022-09-13T01:44:54.545Z,61.21
2022-09-13T01:47:28.902Z,61.34
2022-09-13T01:50:13.854Z,61.25
2022-09-13T01:52:50.028Z,61.52
2022-09-13T01:55:30.215Z,61.58
2022-09-13T01:58:07.935Z,61.64
2022-09-13T02:00:42.465Z,61.93
2022-09-13T02:03:15.858Z,61.86
2022-09-13T02:05:48.334Z,61.96
2022-09-13T02:08:20.477Z,61.98
2022-09-13T02:10:54.094Z,61.92
2022-09-13T02:13:25.885Z,62.12
2022-09-13T02:15:59.113Z,61.98
2022-09-13T02:18:33.457Z,61.78
2022-09-13T02:21:05.897Z,61.99
2022-09-13T02:23:40.442Z,61.91
2022-09-13T02:26:10.789Z,62.16
2022-09-13T02:28:42.971Z,62.24
2022-09-13T02:31:13.107Z,62.32
2022-09-13T02:33:46.851Z,62.28
2022-09-13T02:36:18.601Z,62.65
2022-09-13T02:38:55.758Z,62.66
2022-09-13T02:41:31.623Z,62.66
2022-09-13T02:44:08.728Z,62.51
2022-09-13T02:46:53.473Z,62.41
2022-09-13T02:49:30.035Z,62.57
2022-09-13T02:52:07.070Z,62.63
2022-09-13T02:54:39.697Z,62.52
2022-09-13T02:57:13.763Z,62.57
2022-09-13T02:59:41.855Z,62.77
2022-09-13T03:02:14.041Z,62.78
2022-09-13T03:04:43.530Z,62.80
2022-09-13T03:07:13.016Z,62.91
2022-09-13T03:09:47.305Z,62.78
2022-09-13T03:12:41.053Z,62.66
2022-09-13T03:15:18.956Z,62.69
2022-09-13T03:17:55.907Z,62.66
2022-09-13T03:20:37.245Z,62.62
2022-09-13T03:23:21.306Z,62.57
2022-09-13T03:26:03.710Z,62.85
2022-09-13T03:28:38.786Z,62.92
2022-09-13T03:31:12.330Z,62.97
2022-09-13T03:33:48.419Z,62.82
2022-09-13T03:36:22.629Z,63.08
2022-09-13T03:39:00.149Z,63.18
2022-09-13T03:41:33.025Z,63.37
2022-09-13T03:44:05.438Z,63.27
2022-09-13T03:46:39.947Z,63.44
2022-09-13T03:49:11.872Z,63.61
2022-09-13T03:51:42.115Z,63.69
2022-09-13T03:54:16.169Z,63.66
2022-09-13T03:56:44.261Z,63.69
2022-09-13T03:59:12.277Z,63.69
2022-09-13T04:01:40.273Z,63.72
2022-09-13T04:04:08.311Z,63.74
2022-09-13T04:06:36.471Z,63.79
2022-09-13T04:09:05.910Z,64.00
2022-09-13T04:11:33.921Z,64.01
2022-09-13T04:14:03.777Z,63.88
2022-09-13T04:16:31.820Z,63.83
2022-09-13T04:19:00.117Z,63.82
2022-09-13T04:21:28.146Z,63.79
2022-09-13T04:23:56.291Z,63.64
2022-09-13T04:26:25.660Z,63.41
2022-09-13T04:28:54.197Z,63.40
2022-09-13T04:31:22.301Z,63.21
2022-09-13T04:33:51.122Z,63.15
2022-09-13T04:36:19.195Z,63.18
2022-09-13T04:38:48.172Z,63.02
2022-09-13T04:41:17.335Z,63.06
2022-09-13T04:43:50.479Z,62.71
2022-09-13T04:46:18.731Z,62.91
2022-09-13T04:48:50.024Z,62.82
2022-09-13T04:51:18.821Z,62.81
2022-09-13T04:53:47.015Z,62.72
2022-09-13T04:56:15.581Z,62.71
2022-09-13T04:58:43.586Z,62.65
2022-09-13T05:01:13.207Z,62.63
2022-09-13T05:03:41.278Z,62.74
2022-09-13T05:06:11.401Z,62.80
2022-09-13T05:08:39.974Z,62.77
2022-09-13T05:11:08.794Z,62.72
2022-09-13T05:13:37.401Z,62.76
2022-09-13T05:16:07.730Z,62.74
2022-09-13T05:18:40.927Z,62.70
2022-09-13T05:21:12.574Z,62.79
2022-09-13T05:23:40.616Z,62.81
2022-09-13T05:26:08.992Z,62.80
2022-09-13T05:28:38.350Z,62.67
2022-09-13T05:31:08.454Z,62.68
2022-09-13T05:33:39.513Z,62.62
2022-09-13T05:36:08.581Z,62.70
2022-09-13T05:38:36.638Z,62.70
2022-09-13T05:41:06.750Z,62.77
2022-09-13T05:43:36.465Z,62.85
2022-09-13T05:46:06.827Z,62.96
2022-09-13T05:48:37.252Z,62.93
2022-09-13T05:51:07.205Z,62.94
2022-09-13T05:53:35.779Z,63.04
2022-09-13T05:56:04.098Z,63.08
2022-09-13T05:58:32.137Z,63.21
2022-09-13T06:01:00.258Z,63.21
2022-09-13T06:03:28.268Z,63.35
2022-09-13T06:05:58.689Z,63.42
2022-09-13T06:08:28.885Z,63.60
2022-09-13T06:10:58.578Z,63.50
2022-09-13T06:13:27.400Z,63.17
2022-09-13T06:15:56.433Z,63.02
2022-09-13T06:18:26.182Z,63.00
2022-09-13T06:21:01.309Z,62.82
2022-09-13T06:23:29.780Z,63.00
2022-09-13T06:26:02.751Z,62.71
2022-09-13T06:28:33.255Z,62.84
2022-09-13T06:31:06.787Z,62.84
2022-09-13T06:33:35.651Z,62.76
2022-09-13T06:36:07.226Z,62.46
2022-09-13T06:38:35.266Z,62.70
2022-09-13T06:41:04.644Z,62.70
2022-09-13T06:43:32.920Z,62.60
2022-09-13T06:46:02.265Z,62.83
2022-09-13T06:48:33.079Z,62.86
2022-09-13T06:51:01.716Z,62.76
2022-09-13T06:53:31.558Z,62.81
2022-09-13T06:56:03.634Z,62.57
2022-09-13T06:58:32.755Z,62.46
2022-09-13T07:01:10.695Z,62.15
2022-09-13T07:03:39.256Z,62.16
2022-09-13T07:06:19.125Z,61.99
2022-09-13T07:08:52.883Z,62.16
2022-09-13T07:11:23.145Z,61.99
2022-09-13T07:13:51.834Z,61.88
2022-09-13T07:16:21.792Z,61.70
2022-09-13T07:18:53.328Z,61.54
2022-09-13T07:21:22.254Z,61.78
2022-09-13T07:23:52.893Z,61.72
2022-09-13T07:26:21.414Z,61.45
2022-09-13T07:28:52.219Z,61.42
2022-09-13T07:31:22.783Z,61.33
2022-09-13T07:33:56.349Z,60.80
2022-09-13T07:36:25.098Z,61.13
2022-09-13T07:38:54.646Z,61.11
2022-09-13T07:41:24.149Z,61.10
2022-09-13T07:43:52.810Z,61.09
2022-09-13T07:46:22.756Z,61.21
2022-09-13T07:48:53.530Z,60.78
2022-09-13T07:51:23.254Z,60.02
2022-09-13T07:53:57.529Z,60.32
2022-09-13T07:56:27.762Z,59.91
2022-09-13T07:58:56.570Z,58.94
2022-09-13T08:01:26.688Z,59.85
2022-09-13T08:03:56.866Z,58.57
2022-09-13T08:06:26.838Z,57.15
2022-09-13T08:08:56.679Z,55.81
2022-09-13T08:11:26.495Z,55.32
2022-09-13T08:13:55.063Z,53.51
2022-09-13T08:16:25.166Z,52.66
2022-09-13T08:18:55.361Z,52.11
2022-09-13T08:21:24.498Z,53.27
2022-09-13T08:24:00.380Z,52.08
2022-09-13T08:26:28.953Z,52.33
2022-09-13T08:28:59.181Z,50.88
2022-09-13T08:31:28.057Z,50.72
2022-09-13T08:33:57.766Z,50.66
2022-09-13T08:36:26.577Z,49.91
2022-09-13T08:38:59.098Z,48.74
2022-09-13T08:41:53.588Z,48.26
2022-09-13T08:44:28.729Z,45.61
2022-09-13T08:47:03.718Z,45.51
2022-09-13T08:49:35.414Z,45.17
2022-09-13T08:52:17.974Z,47.16
2022-09-13T08:54:47.530Z,44.51
2022-09-13T08:57:19.413Z,43.15
2022-09-13T08:59:57.567Z,41.35
2022-09-13T09:02:46.616Z,41.94
2022-09-13T09:05:18.532Z,40.37
2022-09-13T09:07:48.418Z,39.14
2022-09-13T09:10:21.449Z,39.86
2022-09-13T09:12:54.630Z,40.23
2022-09-13T09:15:25.735Z,37.85
2022-09-13T09:17:58.749Z,38.75
2022-09-13T09:20:32.815Z,38.30
2022-09-13T09:23:06.405Z,37.77
2022-09-13T09:25:36.504Z,35.75
2022-09-13T09:28:13.176Z,36.47
2022-09-13T09:30:50.558Z,35.17
2022-09-13T09:33:31.921Z,36.90
2022-09-13T09:36:04.911Z,37.11
2022-09-13T09:38:37.124Z,36.35
2022-09-13T09:41:13.963Z,36.25
2022-09-13T09:43:46.890Z,38.11
2022-09-13T09:46:17.898Z,37.66
2022-09-13T09:48:52.874Z,36.66
2022-09-13T09:51:24.253Z,35.28
2022-09-13T09:53:56.794Z,34.51
2022-09-13T09:56:29.922Z,36.01
2022-09-13T09:58:58.000Z,38.36
2022-09-13T10:01:28.208Z,36.75
2022-09-13T10:04:05.981Z,37.20
2022-09-13T10:06:34.415Z,37.48
2022-09-13T10:09:05.578Z,39.46
2022-09-13T10:11:47.653Z,37.85
2022-09-13T10:14:31.272Z,35.19
2022-09-13T10:17:07.853Z,32.51
2022-09-13T10:19:36.405Z,31.57
2022-09-13T10:22:06.807Z,30.74
2022-09-13T10:24:34.927Z,29.02
2022-09-13T10:27:05.515Z,28.27
2022-09-13T10:29:34.450Z,28.10
2022-09-13T10:32:12.964Z,27.91
2022-09-13T10:34:45.440Z,26.55
2022-09-13T10:37:19.385Z,28.37
2022-09-13T10:39:56.890Z,31.14
2022-09-13T10:42:28.444Z,31.91
2022-09-13T10:44:58.442Z,31.06
2022-09-13T10:47:29.007Z,29.82
2022-09-13T10:49:59.378Z,29.14
2022-09-13T10:52:34.345Z,29.87
2022-09-13T10:55:30.368Z,30.87
2022-09-13T11:01:31.509Z,33.53
2022-09-13T11:04:49.994Z,35.61
2022-09-13T11:07:43.811Z,36.80
2022-09-13T11:10:21.474Z,37.57
2022-09-13T11:12:56.573Z,35.78
2022-09-13T11:15:36.484Z,32.53
2022-09-13T11:18:29.908Z,32.07
2022-09-13T11:21:08.986Z,31.27
2022-09-13T11:24:08.472Z,30.38
2022-09-13T11:26:53.868Z,28.45
2022-09-13T11:29:38.130Z,30.09
2022-09-13T11:32:21.500Z,30.86
2022-09-13T11:35:27.322Z,31.90
2022-09-13T11:38:04.534Z,31.32
2022-09-13T11:40:41.573Z,32.15
2022-09-13T11:43:28.719Z,31.83
2022-09-13T11:46:04.772Z,29.73
2022-09-13T11:49:07.206Z,29.48
2022-09-13T11:51:51.032Z,28.97
2022-09-13T11:54:32.805Z,27.65
2022-09-13T11:57:05.127Z,27.78
2022-09-13T11:59:40.094Z,28.30
2022-09-13T12:02:21.043Z,28.37
2022-09-13T12:05:20.633Z,26.87
2022-09-13T12:07:48.888Z,26.34
2022-09-13T12:10:21.991Z,26.55
2022-09-13T12:12:52.848Z,27.98
2022-09-13T12:15:28.581Z,30.05
2022-09-13T12:18:03.264Z,29.20
2022-09-13T12:20:36.598Z,30.61
2022-09-13T12:23:13.262Z,27.92
2022-09-13T12:25:47.941Z,26.39
2022-09-13T12:28:22.735Z,26.46
2022-09-13T12:30:55.559Z,26.12
2022-09-13T12:33:23.971Z,25.72
2022-09-13T12:36:11.011Z,26.26
2022-09-13T12:39:11.510Z,26.75
2022-09-13T12:41:50.723Z,28.58
2022-09-13T12:44:42.594Z,29.58
2022-09-13T12:47:41.238Z,29.92
2022-09-13T12:50:43.481Z,29.19
2022-09-13T12:53:28.431Z,29.62
2022-09-13T12:56:10.641Z,30.05
2022-09-13T12:58:56.426Z,31.03
2022-09-13T13:01:27.135Z,31.47
2022-09-13T13:03:58.185Z,31.56
2022-09-13T13:06:34.766Z,32.60
2022-09-13T13:09:06.079Z,32.40
2022-09-13T13:11:46.627Z,31.58
2022-09-13T13:14:45.349Z,31.60
2022-09-13T13:17:36.690Z,32.66
2022-09-13T13:20:38.084Z,33.49
2022-09-13T13:23:18.562Z,33.73
2022-09-13T13:26:02.209Z,32.58
2022-09-13T13:29:04.868Z,32.88
2022-09-13T13:31:38.973Z,33.41
2022-09-13T13:34:35.141Z,33.25
2022-09-13T13:37:07.891Z,33.75
2022-09-13T13:39:41.916Z,33.62
2022-09-13T13:42:25.004Z,34.50
2022-09-13T13:45:16.699Z,34.20
2022-09-13T13:48:10.466Z,34.79
2022-09-13T13:51:12.080Z,34.31
2022-09-13T13:53:43.071Z,35.44
2022-09-13T13:56:22.759Z,34.67
2022-09-13T13:58:55.730Z,34.26
2022-09-13T14:01:28.587Z,34.32
2022-09-13T14:04:26.584Z,33.87
2022-09-13T14:07:18.261Z,33.92
2022-09-13T14:09:55.921Z,34.23
2022-09-13T14:12:36.316Z,34.97
2022-09-13T14:15:22.276Z,34.62
2022-09-13T14:18:12.204Z,34.50
2022-09-13T14:20:57.922Z,34.37
2022-09-13T14:23:27.112Z,34.45
2022-09-13T14:25:57.551Z,35.25
2022-09-13T14:28:26.521Z,33.86
2022-09-13T14:30:57.709Z,33.83
2022-09-13T14:33:33.225Z,33.59
2022-09-13T14:36:05.091Z,33.31
2022-09-13T14:38:35.736Z,32.81
2022-09-13T14:41:14.601Z,32.75
2022-09-13T14:43:43.625Z,32.04
2022-09-13T14:46:15.504Z,32.13
2022-09-13T14:48:51.507Z,32.16
2022-09-13T14:51:23.793Z,33.34
2022-09-13T14:53:55.215Z,33.22
2022-09-13T14:56:34.378Z,32.86
2022-09-13T14:59:06.746Z,33.16
2022-09-13T15:01:37.165Z,32.98
2022-09-13T15:04:07.885Z,32.73
2022-09-13T15:06:39.378Z,32.89
2022-09-13T15:09:28.896Z,32.99
2022-09-13T15:11:59.699Z,32.81
2022-09-13T15:14:31.292Z,33.25
2022-09-13T15:17:03.129Z,34.37
2022-09-13T15:19:39.394Z,33.60
2022-09-13T15:22:16.711Z,34.15
2022-09-13T15:24:48.396Z,34.24
2022-09-13T15:27:29.056Z,34.86
2022-09-13T15:30:00.590Z,34.34
2022-09-13T15:32:34.849Z,34.64
2022-09-13T15:35:04.756Z,34.35
2022-09-13T15:37:36.999Z,34.47
2022-09-13T15:40:22.721Z,35.32
2022-09-13T15:42:53.951Z,34.55
2022-09-13T15:45:23.671Z,34.52
2022-09-13T15:47:53.842Z,34.78
2022-09-13T15:50:29.227Z,34.82
2022-09-13T15:52:58.586Z,35.50
2022-09-13T15:55:29.499Z,36.44
2022-09-13T15:57:58.182Z,36.43
2022-09-13T16:00:29.743Z,36.05
2022-09-13T16:02:58.183Z,37.37
2022-09-13T16:05:27.874Z,37.10
2022-09-13T16:07:58.956Z,37.13
2022-09-13T16:10:27.361Z,37.42
2022-09-13T16:12:55.958Z,37.51
2022-09-13T16:15:24.289Z,37.87
2022-09-13T16:17:53.154Z,38.01
2022-09-13T16:20:21.706Z,38.01
2022-09-13T16:22:51.325Z,38.20
2022-09-13T16:25:19.667Z,38.62
2022-09-13T16:27:51.071Z,39.24
2022-09-13T16:30:22.300Z,39.69
2022-09-13T16:32:51.005Z,40.03
2022-09-13T16:35:19.498Z,40.42
2022-09-13T16:37:51.432Z,40.70
2022-09-13T16:40:21.770Z,41.42
2022-09-13T16:42:50.097Z,41.63
2022-09-13T16:45:18.680Z,41.73
2022-09-13T16:47:47.212Z,41.84
2022-09-13T16:50:15.980Z,41.94
2022-09-13T16:52:44.907Z,41.89
2022-09-13T16:55:13.323Z,41.76
2022-09-13T16:57:44.695Z,41.96
2022-09-13T17:00:14.565Z,41.90
2022-09-13T17:02:42.913Z,41.83
2022-09-13T17:05:11.592Z,41.94
2022-09-13T17:07:40.494Z,42.24
2022-09-13T17:10:12.006Z,41.90
2022-09-13T17:12:41.005Z,41.69
2022-09-13T17:15:11.789Z,41.70
2022-09-13T17:17:40.192Z,41.79
2022-09-13T17:20:12.241Z,42.27
2022-09-13T17:22:41.354Z,42.42
2022-09-13T17:25:11.373Z,42.32
2022-09-13T17:27:39.726Z,42.28
2022-09-13T17:30:13.049Z,42.61
2022-09-13T17:32:42.049Z,42.61
2022-09-13T17:35:12.118Z,42.85
2022-09-13T17:38:06.866Z,42.72
2022-09-13T17:41:12.267Z,43.58
2022-09-13T17:44:24.060Z,43.37
2022-09-13T17:47:34.067Z,43.87
2022-09-13T17:50:31.987Z,44.77
2022-09-13T17:53:39.248Z,45.30
2022-09-13T17:56:53.180Z,45.21
2022-09-13T17:59:55.142Z,45.37
2022-09-13T18:03:00.564Z,45.56
2022-09-13T18:05:34.347Z,46.42
2022-09-13T18:08:03.103Z,46.96
2022-09-13T18:10:58.049Z,46.82
2022-09-13T18:13:20.184Z,46.83
2022-09-13T18:15:59.192Z,46.78
2022-09-13T18:18:29.311Z,47.22
2022-09-13T18:20:58.395Z,47.45
2022-09-13T18:23:28.636Z,47.76
2022-09-13T18:26:03.465Z,47.97
2022-09-13T18:28:35.652Z,48.20
2022-09-13T18:31:06.002Z,48.41
2022-09-13T18:33:36.018Z,48.57
2022-09-13T18:36:07.031Z,48.75
2022-09-13T18:38:38.167Z,48.90
2022-09-13T18:41:08.878Z,48.80
2022-09-13T18:43:38.770Z,48.67
2022-09-13T18:46:09.985Z,48.80
2022-09-13T18:48:42.270Z,48.89
2022-09-13T18:51:12.540Z,49.00
2022-09-13T18:53:41.436Z,49.06
2022-09-13T18:56:11.973Z,49.00
2022-09-13T18:58:42.425Z,49.28
2022-09-13T19:01:13.711Z,49.42
2022-09-13T19:03:51.583Z,49.31
2022-09-13T19:06:22.167Z,49.53
2022-09-13T19:08:51.979Z,49.72
2022-09-13T19:11:44.795Z,49.82
2022-09-13T19:14:10.977Z,49.93
2022-09-13T19:16:39.403Z,50.40
2022-09-13T19:19:09.353Z,50.47
2022-09-13T19:21:39.048Z,50.59
2022-09-13T19:24:11.667Z,50.79
2022-09-13T19:26:41.507Z,50.86
2022-09-13T19:29:13.398Z,51.03
2022-09-13T19:31:43.717Z,51.31
2022-09-13T19:34:15.557Z,51.53
2022-09-13T19:36:44.403Z,51.59
2022-09-13T19:39:13.206Z,51.62
2022-09-13T19:41:42.160Z,51.66
2022-09-13T19:44:12.661Z,51.69
2022-09-13T19:46:42.037Z,51.96
2022-09-13T19:49:15.152Z,52.03
2022-09-13T19:51:48.839Z,51.79
2022-09-13T19:54:19.550Z,51.69
2022-09-13T19:56:47.918Z,51.62
2022-09-13T19:59:19.758Z,51.53
2022-09-13T20:01:48.839Z,51.61
2022-09-13T20:04:20.945Z,51.69
2022-09-13T20:06:51.889Z,51.65
2022-09-13T20:09:21.652Z,51.61
2022-09-13T20:11:50.334Z,51.55
2022-09-13T20:14:20.278Z,51.75
2022-09-13T20:16:48.722Z,51.97
2022-09-13T20:22:09.577Z,51.91
2022-09-13T20:24:37.648Z,52.05
2022-09-13T20:27:06.194Z,52.14
2022-09-13T20:29:34.268Z,52.26
2022-09-13T20:32:02.629Z,52.51
2022-09-13T20:34:32.186Z,52.49
2022-09-13T20:37:00.158Z,52.76
2022-09-13T20:39:28.245Z,52.83
2022-09-13T20:41:56.285Z,52.94
2022-09-13T20:44:24.259Z,52.92
2022-09-13T20:46:52.283Z,52.76
2022-09-13T20:49:21.465Z,52.78
2022-09-13T20:51:50.994Z,52.65
2022-09-13T20:54:19.330Z,52.40
2022-09-13T20:56:47.583Z,52.23
2022-09-13T20:59:15.854Z,52.07
2022-09-13T21:01:44.315Z,51.98
2022-09-13T21:04:12.396Z,51.97
2022-09-13T21:07:02.636Z,51.93
2022-09-13T21:09:32.511Z,51.91
2022-09-13T21:12:01.869Z,52.06
2022-09-13T21:14:34.035Z,52.17
2022-09-13T21:17:06.528Z,52.17
2022-09-13T21:19:34.904Z,52.30
2022-09-13T21:22:03.424Z,52.30
2022-09-13T21:24:32.826Z,52.48
2022-09-13T21:27:01.009Z,52.69
2022-09-13T21:29:29.137Z,52.97
2022-09-13T21:31:57.089Z,52.90
2022-09-13T21:34:27.289Z,53.01
2022-09-13T21:36:55.863Z,52.99
2022-09-13T21:39:24.606Z,52.99
2022-09-13T21:41:54.057Z,53.05
2022-09-13T21:44:22.169Z,53.12
2022-09-13T21:46:51.446Z,53.16
2022-09-13T21:49:20.254Z,53.26
2022-09-13T21:51:49.759Z,53.36
2022-09-13T21:54:19.583Z,53.34
2022-09-13T21:56:50.894Z,53.43
2022-09-13T21:59:21.928Z,53.49
2022-09-13T22:01:52.016Z,53.61
2022-09-13T22:04:22.264Z,53.76
2022-09-13T22:06:53.623Z,53.77
2022-09-13T22:09:24.675Z,53.89
2022-09-13T22:11:52.770Z,54.05
2022-09-13T22:14:22.599Z,54.19
2022-09-13T22:16:52.606Z,54.35
2022-09-13T22:19:23.578Z,54.42
2022-09-13T22:21:54.375Z,54.33
2022-09-13T22:24:24.774Z,54.46
2022-09-13T22:26:54.129Z,54.54
2022-09-13T22:29:23.930Z,54.65
2022-09-13T22:31:52.793Z,54.65
2022-09-13T22:34:23.093Z,54.82
2022-09-13T22:36:51.734Z,54.95
2022-09-13T22:39:19.766Z,55.12
2022-09-13T22:41:47.770Z,55.45
2022-09-13T22:44:16.026Z,55.60
2022-09-13T22:46:47.259Z,55.66
2022-09-13T22:49:16.813Z,56.17
2022-09-13T22:51:46.063Z,56.23
2022-09-13T22:54:14.678Z,56.16
2022-09-13T22:56:42.951Z,56.27
2022-09-13T22:59:13.929Z,56.39
2022-09-13T23:01:42.591Z,56.41
2022-09-13T23:04:12.628Z,56.38
2022-09-13T23:06:43.687Z,56.49
2022-09-13T23:09:14.205Z,56.62
2022-09-13T23:11:42.434Z,56.66
2022-09-13T23:14:12.615Z,56.71
2022-09-13T23:16:43.149Z,56.64
2022-09-13T23:19:14.061Z,56.64
2022-09-13T23:21:42.692Z,56.57
2022-09-13T23:24:14.093Z,56.53
2022-09-13T23:26:42.508Z,56.57
2022-09-13T23:29:13.718Z,56.80
2022-09-13T23:31:43.512Z,56.93
2022-09-13T23:34:14.368Z,56.77
2022-09-13T23:36:44.005Z,56.82
2022-09-13T23:39:17.411Z,56.70
2022-09-13T23:41:46.430Z,56.71
2022-09-13T23:44:15.150Z,56.77
2022-09-13T23:46:44.392Z,56.77
2022-09-13T23:49:13.902Z,56.72
2022-09-13T23:51:41.926Z,56.84
2022-09-13T23:54:10.518Z,56.94
2022-09-13T23:56:38.499Z,56.88
2022-09-13T23:59:07.450Z,56.84
